createdAt,value
2018-03-11T00:00:55.347Z,92.30
2018-03-11T00:03:22.925Z,92.20
2018-03-11T00:05:50.529Z,92.30
2018-03-11T00:08:18.108Z,92.40
2018-03-11T00:10:45.702Z,92.40
2018-03-11T00:13:13.359Z,92.50
2018-03-11T00:15:40.982Z,92.50
2018-03-11T00:18:08.610Z,92.60
2018-03-11T00:20:36.222Z,92.70
2018-03-11T00:23:03.770Z,92.70
2018-03-11T00:25:31.383Z,92.60
2018-03-11T00:27:59.061Z,92.70
2018-03-11T00:30:26.678Z,92.70
2018-03-11T00:32:54.274Z,92.70
2018-03-11T00:35:21.837Z,92.70
2018-03-11T00:37:49.388Z,92.60
2018-03-11T00:40:16.966Z,92.60
2018-03-11T00:42:44.518Z,92.50
2018-03-11T00:45:12.506Z,92.40
2018-03-11T00:47:40.100Z,92.40
2018-03-11T00:50:08.095Z,92.40
2018-03-11T00:52:35.667Z,92.40
2018-03-11T00:55:03.294Z,92.40
2018-03-11T00:57:31.232Z,92.30
2018-03-11T00:59:58.864Z,92.30
2018-03-11T01:02:26.406Z,92.20
2018-03-11T01:04:53.992Z,92.30
2018-03-11T01:07:21.534Z,92.30
2018-03-11T01:09:49.132Z,92.30
2018-03-11T01:12:16.792Z,92.50
2018-03-11T01:14:44.359Z,92.50
2018-03-11T01:17:11.999Z,92.30
2018-03-11T01:19:39.557Z,92.10
2018-03-11T01:22:07.178Z,91.80
2018-03-11T01:24:34.766Z,91.90
2018-03-11T01:27:02.407Z,91.80
2018-03-11T01:29:29.953Z,91.90
2018-03-11T01:31:57.599Z,92.00
2018-03-11T01:34:25.204Z,92.00
2018-03-11T01:36:52.808Z,92.10
2018-03-11T01:39:20.379Z,92.30
2018-03-11T01:41:47.983Z,92.50
2018-03-11T01:44:15.538Z,92.60
2018-03-11T01:46:43.144Z,92.40
2018-03-11T01:49:10.770Z,92.50
2018-03-11T01:51:38.350Z,92.40
2018-03-11T01:54:05.923Z,92.40
2018-03-11T01:56:33.517Z,92.30
2018-03-11T01:59:01.145Z,92.10
2018-03-11T02:01:28.745Z,92.00
2018-03-11T02:03:56.330Z,92.00
2018-03-11T02:06:23.946Z,92.00
2018-03-11T02:08:51.535Z,92.00
2018-03-11T02:11:19.135Z,92.00
2018-03-11T02:13:47.074Z,92.20
2018-03-11T02:16:14.649Z,92.20
2018-03-11T02:18:42.250Z,92.30
2018-03-11T02:21:17.235Z,92.30
2018-03-11T02:23:44.843Z,92.30
2018-03-11T02:26:12.403Z,92.50
2018-03-11T02:28:40.037Z,92.60
2018-03-11T02:31:07.578Z,92.60
2018-03-11T02:33:35.199Z,92.50
2018-03-11T02:36:02.780Z,92.50
2018-03-11T02:38:30.365Z,92.50
2018-03-11T02:40:58.378Z,92.60
2018-03-11T02:43:26.002Z,92.60
2018-03-11T02:45:53.614Z,92.50
2018-03-11T02:48:21.220Z,92.30
2018-03-11T02:50:48.779Z,92.40
2018-03-11T02:53:16.383Z,92.40
2018-03-11T02:55:43.981Z,92.20
2018-03-11T02:58:11.611Z,92.20
2018-03-11T03:00:39.163Z,92.30
2018-03-11T03:03:06.787Z,92.30
2018-03-11T03:05:34.446Z,92.30
2018-03-11T03:08:02.060Z,92.40
2018-03-11T03:10:29.661Z,92.40
2018-03-11T03:12:57.291Z,92.50
2018-03-11T03:15:24.879Z,92.60
2018-03-11T03:17:52.489Z,92.70
2018-03-11T03:20:20.041Z,92.80
2018-03-11T03:22:47.691Z,92.90
2018-03-11T03:25:15.321Z,93.20
2018-03-11T03:27:42.902Z,93.10
2018-03-11T03:30:10.491Z,93.20
2018-03-11T03:32:38.136Z,93.10
2018-03-11T03:35:05.743Z,93.20
2018-03-11T03:37:33.302Z,93.40
2018-03-11T03:40:01.409Z,93.20
2018-03-11T03:42:29.027Z,93.20
2018-03-11T03:44:57.016Z,93.40
2018-03-11T03:47:24.598Z,93.40
2018-03-11T03:49:52.198Z,93.20
2018-03-11T03:52:19.730Z,92.90
2018-03-11T03:54:47.311Z,92.90
2018-03-11T03:57:14.976Z,92.80
2018-03-11T03:59:42.612Z,92.70
2018-03-11T04:02:10.209Z,92.60
2018-03-11T04:04:37.791Z,92.20
2018-03-11T04:07:05.399Z,91.90
2018-03-11T04:09:33.008Z,91.90
2018-03-11T04:12:00.611Z,91.70
2018-03-11T04:14:28.219Z,91.80
2018-03-11T04:16:55.855Z,91.60
2018-03-11T04:19:23.463Z,91.40
2018-03-11T04:21:51.048Z,90.40
2018-03-11T04:24:18.643Z,90.30
2018-03-11T04:26:46.234Z,90.20
2018-03-11T04:29:13.812Z,90.40
2018-03-11T04:31:41.445Z,90.70
2018-03-11T04:34:09.050Z,91.00
2018-03-11T04:36:36.621Z,91.10
2018-03-11T04:39:04.262Z,91.30
2018-03-11T04:41:31.883Z,91.50
2018-03-11T04:43:59.533Z,91.80
2018-03-11T04:46:27.123Z,92.00
2018-03-11T04:48:54.705Z,92.10
2018-03-11T04:51:22.309Z,92.10
2018-03-11T04:53:49.869Z,92.30
2018-03-11T04:56:17.459Z,92.20
2018-03-11T04:58:45.044Z,92.00
2018-03-11T05:01:12.643Z,91.80
2018-03-11T05:03:40.220Z,92.00
2018-03-11T05:06:07.825Z,91.90
2018-03-11T05:08:35.442Z,91.90
2018-03-11T05:11:03.070Z,91.80
2018-03-11T05:13:30.657Z,91.70
2018-03-11T05:15:58.247Z,91.60
2018-03-11T05:18:25.855Z,91.50
2018-03-11T05:20:53.434Z,91.00
2018-03-11T05:23:21.020Z,91.20
2018-03-11T05:25:48.635Z,91.40
2018-03-11T05:28:16.254Z,91.30
2018-03-11T05:30:43.855Z,91.10
2018-03-11T05:33:11.413Z,91.10
2018-03-11T05:35:38.991Z,91.10
2018-03-11T05:38:06.552Z,91.10
2018-03-11T05:40:34.170Z,90.90
2018-03-11T05:43:01.743Z,90.90
2018-03-11T05:45:29.334Z,91.10
2018-03-11T05:47:56.876Z,91.10
2018-03-11T05:50:24.469Z,91.20
2018-03-11T05:52:52.089Z,91.10
2018-03-11T05:55:19.665Z,90.90
2018-03-11T05:57:47.241Z,90.80
2018-03-11T06:00:14.878Z,90.60
2018-03-11T06:02:42.458Z,90.50
2018-03-11T06:05:10.012Z,90.60
2018-03-11T06:07:37.582Z,90.80
2018-03-11T06:10:05.143Z,90.80
2018-03-11T06:12:32.769Z,90.90
2018-03-11T06:15:00.395Z,90.90
2018-03-11T06:17:28.027Z,90.90
2018-03-11T06:19:55.601Z,90.90
2018-03-11T06:22:23.167Z,90.80
2018-03-11T06:24:50.772Z,90.80
2018-03-11T06:27:18.388Z,90.80
2018-03-11T06:29:46.031Z,90.80
2018-03-11T06:32:13.627Z,90.70
2018-03-11T06:34:41.263Z,90.40
2018-03-11T06:37:08.861Z,89.60
2018-03-11T06:39:36.420Z,89.30
2018-03-11T06:42:04.029Z,89.10
2018-03-11T06:44:32.010Z,88.40
2018-03-11T06:46:59.609Z,88.40
2018-03-11T06:49:27.166Z,87.60
2018-03-11T06:51:54.757Z,88.00
2018-03-11T06:54:22.393Z,88.20
2018-03-11T06:56:49.990Z,88.20
2018-03-11T06:59:17.561Z,88.10
2018-03-11T07:01:45.158Z,87.70
2018-03-11T07:04:12.778Z,87.80
2018-03-11T07:06:40.719Z,88.10
2018-03-11T07:09:08.368Z,88.10
2018-03-11T07:11:36.124Z,87.90
2018-03-11T07:14:03.711Z,86.20
2018-03-11T07:16:32.279Z,86.70
2018-03-11T07:18:59.918Z,86.70
2018-03-11T07:21:27.525Z,86.60
2018-03-11T07:23:55.119Z,86.80
2018-03-11T07:26:22.698Z,86.60
2018-03-11T07:28:50.511Z,86.50
2018-03-11T07:31:18.100Z,85.40
2018-03-11T07:33:45.664Z,85.70
2018-03-11T07:36:13.252Z,86.30
2018-03-11T07:38:40.844Z,86.80
2018-03-11T07:41:08.421Z,86.60
2018-03-11T07:43:36.066Z,87.00
2018-03-11T07:46:04.068Z,85.80
2018-03-11T07:48:31.691Z,85.80
2018-03-11T07:50:59.342Z,85.90
2018-03-11T07:53:26.929Z,83.60
2018-03-11T07:55:54.563Z,84.00
2018-03-11T07:58:22.974Z,81.10
2018-03-11T08:00:50.555Z,82.60
2018-03-11T08:03:18.138Z,83.20
2018-03-11T08:05:45.835Z,83.10
2018-03-11T08:08:13.421Z,83.60
2018-03-11T08:10:43.062Z,83.50
2018-03-11T08:13:10.716Z,84.10
2018-03-11T08:15:38.519Z,81.00
2018-03-11T08:18:06.103Z,82.00
2018-03-11T08:20:33.742Z,81.50
2018-03-11T08:23:01.360Z,82.80
2018-03-11T08:25:29.287Z,83.20
2018-03-11T08:27:56.977Z,83.40
2018-03-11T08:30:24.675Z,83.60
2018-03-11T08:32:52.674Z,83.00
2018-03-11T08:35:20.288Z,82.90
2018-03-11T08:37:47.882Z,83.00
2018-03-11T08:40:15.495Z,83.50
2018-03-11T08:42:43.096Z,83.40
2018-03-11T08:45:10.729Z,83.70
2018-03-11T08:47:38.368Z,83.70
2018-03-11T08:50:06.010Z,83.70
2018-03-11T08:52:33.617Z,83.70
2018-03-11T08:55:01.654Z,83.70
2018-03-11T08:57:29.239Z,83.70
2018-03-11T08:59:57.231Z,84.20
2018-03-11T09:02:24.783Z,84.20
2018-03-11T09:04:52.399Z,84.10
2018-03-11T09:07:20.020Z,83.80
2018-03-11T09:09:47.605Z,83.50
2018-03-11T09:12:15.200Z,82.90
2018-03-11T09:14:42.802Z,82.00
2018-03-11T09:17:10.443Z,82.20
2018-03-11T09:19:38.011Z,82.40
2018-03-11T09:22:05.643Z,82.60
2018-03-11T09:24:33.590Z,82.80
2018-03-11T09:27:01.236Z,82.80
2018-03-11T09:29:28.808Z,82.90
2018-03-11T09:31:56.395Z,83.00
2018-03-11T09:34:23.997Z,83.00
2018-03-11T09:36:51.572Z,83.10
2018-03-11T09:39:19.354Z,83.20
2018-03-11T09:41:47.343Z,83.40
2018-03-11T09:44:14.930Z,83.40
2018-03-11T09:46:42.793Z,83.60
2018-03-11T09:49:11.146Z,83.40
2018-03-11T09:51:38.871Z,83.10
2018-03-11T09:54:06.499Z,83.20
2018-03-11T09:56:34.182Z,83.10
2018-03-11T09:59:01.795Z,82.40
2018-03-11T10:01:29.417Z,82.10
2018-03-11T10:03:57.000Z,81.70
2018-03-11T10:06:24.632Z,81.50
2018-03-11T10:08:52.271Z,81.20
2018-03-11T10:11:19.864Z,80.80
2018-03-11T10:13:47.475Z,80.60
2018-03-11T10:16:15.118Z,79.70
2018-03-11T10:18:42.702Z,79.90
2018-03-11T10:21:10.313Z,79.60
2018-03-11T10:23:37.943Z,79.40
2018-03-11T10:26:05.542Z,79.90
2018-03-11T10:28:33.115Z,80.00
2018-03-11T10:31:00.715Z,79.70
2018-03-11T10:33:28.331Z,79.50
2018-03-11T10:35:55.981Z,79.50
2018-03-11T10:38:23.578Z,79.40
2018-03-11T10:40:51.167Z,79.70
2018-03-11T10:43:18.772Z,79.70
2018-03-11T10:45:46.533Z,79.70
2018-03-11T10:48:14.172Z,79.80
2018-03-11T10:50:41.763Z,79.50
2018-03-11T10:53:09.360Z,79.70
2018-03-11T10:55:37.058Z,79.40
2018-03-11T10:58:08.667Z,79.20
2018-03-11T11:00:44.210Z,79.10
2018-03-11T11:03:22.836Z,78.70
2018-03-11T11:06:19.099Z,78.80
2018-03-11T11:08:49.040Z,79.10
2018-03-11T11:11:17.498Z,79.70
2018-03-11T11:13:45.099Z,78.80
2018-03-11T11:16:12.679Z,77.30
2018-03-11T11:18:40.276Z,78.40
2018-03-11T11:21:14.583Z,77.40
2018-03-11T11:23:42.184Z,76.20
2018-03-11T11:26:09.744Z,77.10
2018-03-11T11:28:37.418Z,76.60
2018-03-11T11:31:05.048Z,76.50
2018-03-11T11:33:32.706Z,75.40
2018-03-11T11:36:00.706Z,76.30
2018-03-11T11:38:28.795Z,74.40
2018-03-11T11:40:56.593Z,74.40
2018-03-11T11:43:32.783Z,74.60
2018-03-11T11:46:00.359Z,73.50
2018-03-11T11:48:27.967Z,73.20
2018-03-11T11:50:55.711Z,74.10
2018-03-11T11:53:23.295Z,74.40
2018-03-11T11:55:50.886Z,74.10
2018-03-11T11:58:18.870Z,72.80
2018-03-11T12:00:46.448Z,73.70
2018-03-11T12:03:14.069Z,72.80
2018-03-11T12:05:41.650Z,69.20
2018-03-11T12:08:10.439Z,67.90
2018-03-11T12:10:38.031Z,69.20
2018-03-11T12:13:06.039Z,71.40
2018-03-11T12:15:33.626Z,71.40
2018-03-11T12:18:01.260Z,71.20
2018-03-11T12:20:29.377Z,69.40
2018-03-11T12:22:57.059Z,68.90
2018-03-11T12:25:24.951Z,68.20
2018-03-11T12:27:52.499Z,68.60
2018-03-11T12:30:20.118Z,69.20
2018-03-11T12:32:47.704Z,68.30
2018-03-11T12:35:15.297Z,68.30
2018-03-11T12:37:42.927Z,67.90
2018-03-11T12:40:10.517Z,67.60
2018-03-11T12:42:38.165Z,66.90
2018-03-11T12:45:05.774Z,67.10
2018-03-11T12:47:33.370Z,67.90
2018-03-11T12:50:00.969Z,67.30
2018-03-11T12:52:29.013Z,67.90
2018-03-11T12:54:56.666Z,68.10
2018-03-11T12:57:24.272Z,67.80
2018-03-11T12:59:52.120Z,67.70
2018-03-11T13:02:19.749Z,67.10
2018-03-11T13:04:47.364Z,66.90
2018-03-11T13:07:14.983Z,66.90
2018-03-11T13:09:42.579Z,67.20
2018-03-11T13:12:11.369Z,66.40
2018-03-11T13:14:39.146Z,67.60
2018-03-11T13:17:07.408Z,67.00
2018-03-11T13:19:35.992Z,68.70
2018-03-11T13:22:04.641Z,68.30
2018-03-11T13:24:40.872Z,68.30
2018-03-11T13:27:17.239Z,68.30
2018-03-11T13:29:51.794Z,68.70
2018-03-11T13:32:31.329Z,68.80
2018-03-11T13:35:00.416Z,69.50
2018-03-11T13:37:28.074Z,68.50
2018-03-11T13:40:07.417Z,69.20
2018-03-11T13:42:35.065Z,68.20
2018-03-11T13:45:14.461Z,67.70
2018-03-11T13:47:42.272Z,68.30
2018-03-11T13:50:09.989Z,68.30
2018-03-11T13:52:49.997Z,68.70
2018-03-11T13:55:17.598Z,68.70
2018-03-11T13:58:23.024Z,69.50
2018-03-11T14:01:02.334Z,70.10
2018-03-11T14:03:37.499Z,70.10
2018-03-11T14:06:09.073Z,70.60
2018-03-11T14:08:36.720Z,70.60
2018-03-11T14:11:04.412Z,70.30
2018-03-11T14:13:34.276Z,70.60
2018-03-11T14:16:02.194Z,71.30
2018-03-11T14:18:29.817Z,72.10
2018-03-11T14:20:57.452Z,72.80
2018-03-11T14:23:25.099Z,72.80
2018-03-11T14:25:52.691Z,72.70
2018-03-11T14:28:20.645Z,71.30
2018-03-11T14:30:48.463Z,71.30
2018-03-11T14:33:16.768Z,72.40
2018-03-11T14:35:44.340Z,73.60
2018-03-11T14:38:15.499Z,73.00
2018-03-11T14:40:44.560Z,75.00
2018-03-11T14:43:12.137Z,75.00
2018-03-11T14:45:41.067Z,75.70
2018-03-11T14:48:08.693Z,76.60
2018-03-11T14:50:36.355Z,77.20
2018-03-11T14:53:03.956Z,77.70
2018-03-11T14:55:31.547Z,78.60
2018-03-11T14:57:59.138Z,79.10
2018-03-11T15:00:27.195Z,79.40
2018-03-11T15:02:58.072Z,79.30
2018-03-11T15:05:25.838Z,79.40
2018-03-11T15:07:57.130Z,79.40
2018-03-11T15:10:24.778Z,79.90
2018-03-11T15:12:52.397Z,79.90
2018-03-11T15:15:20.001Z,80.20
2018-03-11T15:17:47.673Z,80.50
2018-03-11T15:20:16.193Z,80.60
2018-03-11T15:22:44.041Z,81.00
2018-03-11T15:25:15.903Z,80.80
2018-03-11T15:27:43.654Z,80.80
2018-03-11T15:30:11.587Z,81.00
2018-03-11T15:32:39.239Z,81.00
2018-03-11T15:35:06.826Z,80.50
2018-03-11T15:37:34.448Z,80.50
2018-03-11T15:40:12.566Z,80.60
2018-03-11T15:45:24.383Z,80.10
2018-03-11T15:47:52.190Z,80.20
2018-03-11T15:50:20.176Z,80.10
2018-03-11T15:52:56.952Z,80.10
2018-03-11T15:55:25.792Z,80.50
2018-03-11T15:57:53.735Z,80.90
2018-03-11T16:00:21.487Z,81.50
2018-03-11T16:02:49.190Z,81.70
2018-03-11T16:05:17.249Z,81.60
2018-03-11T16:07:45.393Z,81.90
2018-03-11T16:10:13.462Z,82.10
2018-03-11T16:12:45.590Z,82.00
2018-03-11T16:15:17.986Z,81.90
2018-03-11T16:17:47.768Z,81.90
2018-03-11T16:20:17.712Z,81.60
2018-03-11T16:22:45.404Z,81.60
2018-03-11T16:25:13.847Z,81.90
2018-03-11T16:27:41.426Z,82.00
2018-03-11T16:30:13.309Z,82.00
2018-03-11T16:32:40.932Z,82.30
2018-03-11T16:35:12.602Z,82.30
2018-03-11T16:37:40.265Z,82.70
2018-03-11T16:40:07.924Z,83.20
2018-03-11T16:42:35.575Z,83.40
2018-03-11T16:45:04.227Z,83.70
2018-03-11T16:47:31.864Z,84.00
2018-03-11T16:50:06.824Z,84.00
2018-03-11T16:52:34.718Z,84.10
2018-03-11T16:55:02.307Z,84.10
2018-03-11T16:57:29.893Z,84.10
2018-03-11T17:00:11.032Z,84.20
2018-03-11T17:02:39.084Z,83.90
2018-03-11T17:05:06.654Z,84.00
2018-03-11T17:07:34.213Z,84.10
2018-03-11T17:10:01.790Z,84.00
2018-03-11T17:12:29.421Z,84.10
2018-03-11T17:14:56.990Z,84.20
2018-03-11T17:17:26.665Z,84.30
2018-03-11T17:19:54.246Z,84.30
2018-03-11T17:22:21.831Z,84.40
2018-03-11T17:24:49.463Z,84.20
2018-03-11T17:27:17.077Z,84.20
2018-03-11T17:29:46.330Z,84.80
2018-03-11T17:32:14.088Z,84.80
2018-03-11T17:34:41.783Z,84.50
2018-03-11T17:37:09.458Z,84.90
2018-03-11T17:39:37.360Z,85.00
2018-03-11T17:42:05.952Z,85.50
2018-03-11T17:44:33.543Z,85.80
2018-03-11T17:47:01.186Z,86.00
2018-03-11T17:49:28.789Z,85.80
2018-03-11T17:51:56.761Z,86.30
2018-03-11T17:54:24.367Z,86.30
2018-03-11T17:56:51.967Z,86.60
2018-03-11T17:59:19.559Z,86.70
2018-03-11T18:01:47.450Z,87.10
2018-03-11T18:04:15.075Z,87.40
2018-03-11T18:06:42.690Z,87.30
2018-03-11T18:09:10.359Z,87.60
2018-03-11T18:11:37.967Z,87.90
2018-03-11T18:14:05.542Z,88.20
2018-03-11T18:16:33.138Z,88.10
2018-03-11T18:19:00.788Z,88.30
2018-03-11T18:21:28.426Z,88.40
2018-03-11T18:23:56.023Z,88.20
2018-03-11T18:26:23.585Z,88.10
2018-03-11T18:28:51.240Z,88.10
2018-03-11T18:31:18.836Z,88.30
2018-03-11T18:34:00.359Z,88.50
2018-03-11T18:36:27.923Z,88.60
2018-03-11T18:38:55.520Z,88.60
2018-03-11T18:41:23.164Z,88.50
2018-03-11T18:43:50.767Z,90.00
2018-03-11T18:46:19.551Z,90.00
2018-03-11T18:48:47.179Z,90.00
2018-03-11T18:51:14.798Z,90.10
2018-03-11T18:53:42.376Z,90.30
2018-03-11T18:56:10.038Z,90.20
2018-03-11T18:58:37.606Z,90.90
2018-03-11T19:01:05.230Z,90.70
2018-03-11T19:03:32.848Z,90.60
2018-03-11T19:06:00.867Z,90.50
2018-03-11T19:08:28.452Z,90.50
2018-03-11T19:10:56.079Z,90.70
2018-03-11T19:13:23.655Z,90.80
2018-03-11T19:15:51.244Z,90.70
2018-03-11T19:18:18.821Z,90.80
2018-03-11T19:20:46.456Z,91.10
2018-03-11T19:23:14.039Z,91.10
2018-03-11T19:25:41.609Z,91.30
2018-03-11T19:28:09.212Z,91.60
2018-03-11T19:30:36.844Z,91.80
2018-03-11T19:33:04.466Z,91.80
2018-03-11T19:35:32.046Z,91.70
2018-03-11T19:37:59.641Z,91.50
2018-03-11T19:40:27.239Z,91.30
2018-03-11T19:42:54.826Z,91.50
2018-03-11T19:45:22.480Z,91.40
2018-03-11T19:47:50.106Z,91.60
2018-03-11T19:50:18.334Z,91.40
2018-03-11T19:52:45.933Z,91.40
2018-03-11T19:55:13.525Z,91.40
2018-03-11T19:57:41.174Z,91.70
2018-03-11T20:00:09.261Z,91.80
2018-03-11T20:02:36.818Z,91.80
2018-03-11T20:05:04.384Z,91.70
2018-03-11T20:07:32.001Z,91.80
2018-03-11T20:10:00.007Z,92.20
2018-03-11T20:12:27.678Z,92.20
2018-03-11T20:14:55.264Z,91.90
2018-03-11T20:17:22.853Z,91.80
2018-03-11T20:19:50.855Z,92.00
2018-03-11T20:22:23.267Z,92.00
2018-03-11T20:24:50.842Z,91.90
2018-03-11T20:27:18.461Z,91.70
2018-03-11T20:29:46.016Z,91.60
2018-03-11T20:32:13.605Z,91.50
2018-03-11T20:34:41.230Z,91.60
2018-03-11T20:37:08.880Z,92.00
2018-03-11T20:39:36.476Z,92.00
2018-03-11T20:42:05.523Z,92.10
2018-03-11T20:44:33.097Z,92.00
2018-03-11T20:47:00.694Z,92.10
2018-03-11T20:49:28.304Z,92.20
2018-03-11T20:51:55.971Z,92.50
2018-03-11T20:54:23.563Z,92.80
2018-03-11T20:56:51.187Z,93.00
2018-03-11T20:59:18.772Z,93.40
2018-03-11T21:01:46.403Z,93.30
2018-03-11T21:04:13.999Z,93.10
2018-03-11T21:06:41.672Z,92.80
2018-03-11T21:09:09.267Z,92.70
2018-03-11T21:11:36.836Z,92.60
2018-03-11T21:14:09.675Z,92.60
2018-03-11T21:16:37.259Z,92.50
2018-03-11T21:19:05.292Z,92.50
2018-03-11T21:21:32.929Z,92.50
2018-03-11T21:24:00.523Z,92.40
2018-03-11T21:26:28.106Z,92.50
2018-03-11T21:28:55.939Z,92.50
2018-03-11T21:31:23.628Z,92.40
2018-03-11T21:33:51.257Z,92.50
2018-03-11T21:36:18.816Z,92.50
2018-03-11T21:38:46.416Z,92.60
2018-03-11T21:41:13.961Z,93.00
2018-03-11T21:43:41.929Z,93.20
2018-03-11T21:46:09.523Z,93.20
2018-03-11T21:48:37.112Z,93.20
2018-03-11T21:51:04.673Z,93.20
2018-03-11T21:53:32.268Z,93.10
2018-03-11T21:56:00.246Z,93.10
2018-03-11T21:58:27.855Z,93.10
2018-03-11T22:00:55.410Z,92.80
2018-03-11T22:03:22.996Z,92.60
2018-03-11T22:05:51.023Z,92.60
2018-03-11T22:08:18.628Z,92.60
2018-03-11T22:10:46.638Z,92.60
2018-03-11T22:13:14.232Z,92.60
2018-03-11T22:15:41.869Z,92.50
2018-03-11T22:18:09.422Z,92.60
2018-03-11T22:20:37.016Z,92.70
2018-03-11T22:23:04.555Z,92.90
2018-03-11T22:25:32.191Z,93.00
2018-03-11T22:27:59.770Z,92.90
2018-03-11T22:30:27.368Z,92.90
2018-03-11T22:32:54.934Z,92.90
2018-03-11T22:35:22.538Z,92.80
2018-03-11T22:37:50.528Z,92.70
2018-03-11T22:40:18.152Z,92.60
2018-03-11T22:42:45.711Z,92.60
2018-03-11T22:45:13.308Z,92.40
2018-03-11T22:47:40.872Z,92.20
2018-03-11T22:50:08.518Z,92.00
2018-03-11T22:52:36.095Z,91.90
2018-03-11T22:55:03.723Z,91.90
2018-03-11T22:57:31.371Z,91.80
2018-03-11T22:59:58.963Z,91.70
2018-03-11T23:02:26.536Z,91.70
2018-03-11T23:04:54.141Z,91.60
2018-03-11T23:07:21.673Z,91.50
2018-03-11T23:09:49.633Z,91.30
2018-03-11T23:12:17.207Z,91.30
2018-03-11T23:14:44.799Z,91.20
2018-03-11T23:17:12.377Z,91.30
2018-03-11T23:19:40.018Z,91.40
2018-03-11T23:22:07.573Z,91.60
2018-03-11T23:24:35.166Z,91.60
2018-03-11T23:27:02.742Z,91.70
2018-03-11T23:29:30.329Z,91.80
2018-03-11T23:31:57.903Z,91.90
2018-03-11T23:34:25.495Z,91.70
2018-03-11T23:36:53.066Z,91.60
2018-03-11T23:39:20.604Z,91.50
2018-03-11T23:41:48.239Z,91.40
2018-03-11T23:44:15.788Z,91.40
2018-03-11T23:46:43.480Z,91.40
2018-03-11T23:49:11.032Z,91.50
2018-03-11T23:51:38.643Z,91.60
2018-03-11T23:54:06.251Z,91.70
2018-03-11T23:56:33.909Z,91.70
2018-03-11T23:59:01.464Z,91.60
